Time;durP1;ratioP1;P1;durP2;ratioP2;P2;SDS_P1;SDS_P2;PMS_P1;PMS_P2;Temp;Humidity;BMP_temperature;BMP_pressure;BME280_temperature;BME280_humidity;BME280_pressure;Samples;Min_cycle;Max_cycle;Signal;HPM_P1;HPM_P2
2021/12/28 00:01:56;;;;;;;39.35;27.17;;;;;;;;;;5090497;28;20043;-30
2021/12/28 00:04:22;;;;;;;35.28;24.42;;;;;;;;;;5099165;28;20378;-32
2021/12/28 00:06:48;;;;;;;37.65;25.27;;;;;;;;;;5090255;28;20485;-30
2021/12/28 00:09:14;;;;;;;38.15;26.40;;;;;;;;;;5090523;28;20132;-30
2021/12/28 00:11:40;;;;;;;50.83;30.70;;;;;;;;;;5090222;28;20076;-32
2021/12/28 00:14:07;;;;;;;49.00;30.40;;;;;;;;;;5089834;28;20043;-31
2021/12/28 00:17:58;;;;;;;52.20;31.27;;;;;;;;;;5089939;28;20401;-30
2021/12/28 00:19:19;;;;;;;48.80;30.92;;;;;;;;;;5089721;28;20085;-30
2021/12/28 00:21:45;;;;;;;41.53;27.98;;;;;;;;;;5090036;28;20366;-30
2021/12/28 00:24:11;;;;;;;50.00;30.77;;;;;;;;;;5089805;28;20082;-31
2021/12/28 00:26:37;;;;;;;38.15;26.55;;;;;;;;;;5089350;28;20109;-30
2021/12/28 00:29:03;;;;;;;51.85;31.20;;;;;;;;;;5089736;28;20063;-31
2021/12/28 00:31:29;;;;;;;40.05;26.17;;;;;;;;;;5089693;28;20040;-31
2021/12/28 00:33:57;;;;;;;42.50;29.38;;;;;;;;;;5089334;28;20538;-30
2021/12/28 00:36:24;;;;;;;45.05;28.42;;;;;;;;;;5089593;28;20409;-31
2021/12/28 00:38:50;;;;;;;47.75;30.25;;;;;;;;;;5091058;28;20036;-30
2021/12/28 00:41:16;;;;;;;40.03;27.30;;;;;;;;;;5093557;28;20446;-32
2021/12/28 00:43:43;;;;;;;46.08;29.95;;;;;;;;;;5093460;28;20142;-30
2021/12/28 00:46:17;;;;;;;43.47;29.00;;;;;;;;;;5093881;28;20039;-29
2021/12/28 00:48:43;;;;;;;46.67;29.63;;;;;;;;;;5093644;28;20488;-31
2021/12/28 00:51:09;;;;;;;41.55;27.30;;;;;;;;;;5093524;28;20093;-29
2021/12/28 00:53:35;;;;;;;43.03;28.65;;;;;;;;;;5100129;28;20494;-30
2021/12/28 00:58:31;;;;;;;45.35;29.60;;;;;;;;;;5134448;22;20043;-28
2021/12/28 01:00:57;;;;;;;44.08;28.70;;;;;;;;;;5106746;22;20070;-26
2021/12/28 01:03:24;;;;;;;58.88;32.25;;;;;;;;;;5093921;28;20043;-26
2021/12/28 01:05:50;;;;;;;61.22;34.05;;;;;;;;;;5093565;28;20067;-26
2021/12/28 01:08:16;;;;;;;52.95;32.50;;;;;;;;;;5093000;28;20062;-26
2021/12/28 01:10:48;;;;;;;54.38;33.20;;;;;;;;;;5074505;28;20047;-26
2021/12/28 01:13:14;;;;;;;73.55;37.90;;;;;;;;;;5092899;28;20037;-27
2021/12/28 01:15:41;;;;;;;69.70;36.22;;;;;;;;;;5074458;28;20040;-27
2021/12/28 01:18:07;;;;;;;60.20;34.67;;;;;;;;;;5093175;28;20119;-26
2021/12/28 01:20:33;;;;;;;63.55;35.17;;;;;;;;;;5093026;28;20044;-26
2021/12/28 01:23:00;;;;;;;67.82;36.80;;;;;;;;;;5092626;28;20064;-26
2021/12/28 01:25:26;;;;;;;65.72;35.88;;;;;;;;;;5092956;28;20078;-26
2021/12/28 01:27:52;;;;;;;68.15;36.60;;;;;;;;;;5092512;28;20119;-26
2021/12/28 01:30:20;;;;;;;52.85;31.88;;;;;;;;;;5093047;28;20527;-26
2021/12/28 01:32:47;;;;;;;73.45;37.08;;;;;;;;;;5092401;28;20044;-26
2021/12/28 01:35:13;;;;;;;77.18;37.65;;;;;;;;;;5092430;28;20032;-26
2021/12/28 01:37:40;;;;;;;65.07;33.80;;;;;;;;;;5092606;28;20115;-27
2021/12/28 01:40:07;;;;;;;78.55;37.95;;;;;;;;;;5092042;28;20040;-26
2021/12/28 01:42:33;;;;;;;73.18;37.63;;;;;;;;;;5092607;28;20423;-26
2021/12/28 01:45:02;;;;;;;79.78;39.30;;;;;;;;;;5092486;28;20039;-26
2021/12/28 01:47:27;;;;;;;72.90;36.28;;;;;;;;;;5092488;28;20046;-26
2021/12/28 01:49:53;;;;;;;84.90;39.10;;;;;;;;;;5091782;28;20111;-27
2021/12/28 01:52:20;;;;;;;74.20;37.72;;;;;;;;;;5092522;28;20086;-26
2021/12/28 01:54:46;;;;;;;62.95;34.92;;;;;;;;;;5092680;28;20071;-27
2021/12/28 01:57:12;;;;;;;49.88;30.50;;;;;;;;;;5092850;28;20043;-27
2021/12/28 01:59:38;;;;;;;47.22;28.63;;;;;;;;;;5092291;28;20040;-26
2021/12/28 02:02:04;;;;;;;105.65;30.98;;;;;;;;;;5092620;28;20499;-27
2021/12/28 02:04:30;;;;;;;45.05;28.25;;;;;;;;;;5073730;28;20048;-27
2021/12/28 02:06:58;;;;;;;77.78;36.53;;;;;;;;;;5092107;28;20040;-27
2021/12/28 02:09:24;;;;;;;106.95;41.40;;;;;;;;;;5092623;28;20044;-26
2021/12/28 02:11:52;;;;;;;49.70;29.35;;;;;;;;;;5091191;28;20048;-27
2021/12/28 02:14:18;;;;;;;57.60;32.72;;;;;;;;;;5074063;28;20082;-27
2021/12/28 02:16:44;;;;;;;48.47;29.27;;;;;;;;;;5092054;28;20036;-26
2021/12/28 02:19:12;;;;;;;57.47;31.75;;;;;;;;;;5092063;28;20043;-27
2021/12/28 02:21:38;;;;;;;43.85;27.00;;;;;;;;;;5092158;28;20044;-27
2021/12/28 02:24:07;;;;;;;46.03;28.85;;;;;;;;;;5091959;28;20115;-26
2021/12/28 02:26:33;;;;;;;44.47;26.67;;;;;;;;;;5091803;28;20456;-27
2021/12/28 02:28:59;;;;;;;57.13;31.27;;;;;;;;;;5092126;28;20386;-26
2021/12/28 02:31:26;;;;;;;55.35;32.60;;;;;;;;;;5091945;28;20043;-26
2021/12/28 02:33:52;;;;;;;104.07;44.50;;;;;;;;;;5092403;28;20046;-27
2021/12/28 02:36:19;;;;;;;70.68;35.92;;;;;;;;;;5092382;28;20119;-27
2021/12/28 02:38:45;;;;;;;77.28;38.58;;;;;;;;;;5141793;22;20472;-27
2021/12/28 02:41:12;;;;;;;48.83;29.40;;;;;;;;;;5153696;27;20125;-27
2021/12/28 02:43:39;;;;;;;62.05;33.53;;;;;;;;;;5151585;27;20063;-27
2021/12/28 02:46:05;;;;;;;89.88;40.45;;;;;;;;;;5133102;27;20039;-27
2021/12/28 02:48:32;;;;;;;63.42;35.25;;;;;;;;;;5126927;27;20482;-27
2021/12/28 02:51:03;;;;;;;43.22;28.17;;;;;;;;;;5131152;27;20087;-27
2021/12/28 02:53:29;;;;;;;41.55;26.30;;;;;;;;;;5130775;27;20046;-27
2021/12/28 02:55:55;;;;;;;41.42;27.85;;;;;;;;;;5131368;27;20031;-27
2021/12/28 02:58:26;;;;;;;42.58;27.10;;;;;;;;;;5130624;27;20441;-27
2021/12/28 03:00:59;;;;;;;45.65;26.67;;;;;;;;;;5130289;27;20126;-27
2021/12/28 03:03:27;;;;;;;78.97;35.65;;;;;;;;;;5129114;27;20049;-27
2021/12/28 03:05:55;;;;;;;56.92;32.17;;;;;;;;;;5130337;27;20121;-27
2021/12/28 03:08:22;;;;;;;55.58;31.55;;;;;;;;;;5129592;27;20119;-27
2021/12/28 03:10:49;;;;;;;85.15;39.67;;;;;;;;;;5131200;27;20380;-27
2021/12/28 03:13:25;;;;;;;123.25;45.95;;;;;;;;;;5128722;27;20084;-27
2021/12/28 03:15:52;;;;;;;50.25;28.35;;;;;;;;;;5130436;27;20127;-27
2021/12/28 03:18:18;;;;;;;61.42;30.65;;;;;;;;;;5130271;27;20031;-27
2021/12/28 03:20:45;;;;;;;72.40;37.03;;;;;;;;;;5129386;27;20039;-27
2021/12/28 03:23:13;;;;;;;68.63;35.03;;;;;;;;;;5129915;27;20042;-27
2021/12/28 03:25:39;;;;;;;111.45;44.92;;;;;;;;;;5131269;27;20039;-27
2021/12/28 03:28:05;;;;;;;110.90;41.38;;;;;;;;;;5129587;27;20041;-27
2021/12/28 03:30:31;;;;;;;86.22;40.45;;;;;;;;;;5119976;27;20050;-27
2021/12/28 03:32:57;;;;;;;93.13;40.50;;;;;;;;;;5129949;27;20031;-27
2021/12/28 03:35:28;;;;;;;72.80;36.17;;;;;;;;;;5130185;27;20436;-27
2021/12/28 03:37:54;;;;;;;246.60;60.05;;;;;;;;;;5130515;27;20030;-27
2021/12/28 03:40:20;;;;;;;281.80;61.28;;;;;;;;;;5131791;27;20068;-27
2021/12/28 03:42:46;;;;;;;204.40;47.72;;;;;;;;;;5130353;27;20035;-27
2021/12/28 03:45:13;;;;;;;466.52;74.85;;;;;;;;;;5130553;27;20488;-27
2021/12/28 03:47:39;;;;;;;451.45;70.15;;;;;;;;;;5130657;27;20133;-27
2021/12/28 03:50:06;;;;;;;652.45;99.25;;;;;;;;;;5131013;27;20035;-27
2021/12/28 03:52:32;;;;;;;247.75;49.30;;;;;;;;;;5131041;27;20047;-28
2021/12/28 03:54:58;;;;;;;384.75;65.57;;;;;;;;;;5129295;27;20046;-27
2021/12/28 03:57:24;;;;;;;500.55;78.70;;;;;;;;;;5130781;27;20415;-27
2021/12/28 03:59:50;;;;;;;209.73;50.80;;;;;;;;;;5130686;27;20391;-27
2021/12/28 04:02:16;;;;;;;189.18;42.78;;;;;;;;;;5130290;27;20176;-27
2021/12/28 04:04:42;;;;;;;662.85;100.50;;;;;;;;;;5129364;27;20069;-27
2021/12/28 04:07:12;;;;;;;349.30;62.25;;;;;;;;;;5129813;27;20035;-27
2021/12/28 04:12:20;;;;;;;159.35;40.22;;;;;;;;;;5130645;27;20045;-27
2021/12/28 04:14:46;;;;;;;184.32;44.40;;;;;;;;;;5136408;27;20407;-27
2021/12/28 04:17:13;;;;;;;277.70;54.80;;;;;;;;;;5138112;27;20157;-27
2021/12/28 04:19:50;;;;;;;232.38;52.70;;;;;;;;;;5075731;28;20040;-28
2021/12/28 04:22:16;;;;;;;75.53;33.05;;;;;;;;;;5075863;28;20048;-28
2021/12/28 04:24:42;;;;;;;419.48;72.25;;;;;;;;;;5075268;28;20056;-28
2021/12/28 04:27:09;;;;;;;309.27;61.17;;;;;;;;;;5057352;28;20041;-29
2021/12/28 04:29:34;;;;;;;96.88;36.22;;;;;;;;;;5074882;28;20317;-29
2021/12/28 04:32:01;;;;;;;116.97;38.35;;;;;;;;;;5075820;28;20124;-29
2021/12/28 04:34:30;;;;;;;304.05;59.92;;;;;;;;;;5074950;28;20519;-29
2021/12/28 04:36:56;;;;;;;84.80;34.17;;;;;;;;;;5075572;28;20555;-30
2021/12/28 04:39:22;;;;;;;137.02;37.78;;;;;;;;;;5075367;28;20509;-27
2021/12/28 04:41:48;;;;;;;98.57;36.50;;;;;;;;;;5075248;28;20076;-27
2021/12/28 04:44:21;;;;;;;79.25;34.50;;;;;;;;;;5074610;28;20043;-27
2021/12/28 04:46:47;;;;;;;144.23;41.55;;;;;;;;;;5075560;28;20045;-27
2021/12/28 04:49:15;;;;;;;104.97;36.75;;;;;;;;;;5056832;28;20059;-28
2021/12/28 04:51:42;;;;;;;92.13;34.13;;;;;;;;;;5075736;28;20481;-28
2021/12/28 04:54:11;;;;;;;140.90;44.38;;;;;;;;;;5074032;28;20119;-28
2021/12/28 04:56:38;;;;;;;86.53;35.80;;;;;;;;;;5075269;28;20036;-28
2021/12/28 04:59:04;;;;;;;139.82;43.88;;;;;;;;;;5074985;28;20102;-28
2021/12/28 05:01:30;;;;;;;110.97;40.30;;;;;;;;;;5075555;28;20040;-28
2021/12/28 05:03:59;;;;;;;89.60;37.22;;;;;;;;;;5074409;28;20457;-28
2021/12/28 05:06:25;;;;;;;119.97;41.97;;;;;;;;;;5056631;28;20052;-28
2021/12/28 05:08:51;;;;;;;87.90;36.70;;;;;;;;;;5075735;28;20047;-28
2021/12/28 05:11:17;;;;;;;113.03;41.20;;;;;;;;;;5074769;28;20416;-28
2021/12/28 05:13:44;;;;;;;115.00;41.20;;;;;;;;;;5075139;28;20055;-28
2021/12/28 05:16:14;;;;;;;99.68;39.22;;;;;;;;;;5073514;28;20040;-28
2021/12/28 05:18:40;;;;;;;91.93;36.80;;;;;;;;;;5057934;28;20072;-27
2021/12/28 05:21:06;;;;;;;100.07;36.83;;;;;;;;;;5072391;28;20048;-27
2021/12/28 05:23:32;;;;;;;90.60;36.22;;;;;;;;;;5072988;28;20127;-27
2021/12/28 05:25:58;;;;;;;98.97;39.15;;;;;;;;;;5069137;28;20128;-27
2021/12/28 05:28:25;;;;;;;65.82;29.80;;;;;;;;;;5070663;28;20630;-27
2021/12/28 05:30:51;;;;;;;75.82;31.27;;;;;;;;;;5070585;28;20066;-27
2021/12/28 05:33:17;;;;;;;85.88;33.85;;;;;;;;;;5069884;28;20040;-27
2021/12/28 05:35:44;;;;;;;61.38;29.17;;;;;;;;;;5071715;28;20036;-28
2021/12/28 05:38:12;;;;;;;76.00;30.75;;;;;;;;;;5071906;28;20039;-27
2021/12/28 05:40:38;;;;;;;56.65;28.77;;;;;;;;;;5070773;28;20455;-27
2021/12/28 05:43:04;;;;;;;68.10;29.95;;;;;;;;;;5071140;28;20049;-28
2021/12/28 05:45:30;;;;;;;71.43;29.48;;;;;;;;;;5069989;28;20405;-27
2021/12/28 05:47:56;;;;;;;54.30;27.15;;;;;;;;;;5071441;28;20642;-27
2021/12/28 05:50:22;;;;;;;55.30;27.30;;;;;;;;;;5070801;28;20037;-27
2021/12/28 05:52:48;;;;;;;52.17;26.85;;;;;;;;;;5072088;28;20409;-27
2021/12/28 05:55:15;;;;;;;60.65;27.58;;;;;;;;;;5070696;28;20259;-27
2021/12/28 05:57:41;;;;;;;63.35;28.45;;;;;;;;;;5071595;28;20036;-27
2021/12/28 06:00:08;;;;;;;60.55;27.83;;;;;;;;;;5071792;28;20461;-25
2021/12/28 06:02:34;;;;;;;53.67;26.27;;;;;;;;;;5072018;28;20037;-28
2021/12/28 06:05:00;;;;;;;57.33;26.85;;;;;;;;;;5062461;28;20034;-28
2021/12/28 06:07:27;;;;;;;50.83;24.83;;;;;;;;;;5066890;28;20119;-28
2021/12/28 06:09:56;;;;;;;49.67;24.20;;;;;;;;;;5051479;28;20048;-29
2021/12/28 06:12:23;;;;;;;49.65;24.80;;;;;;;;;;5052208;28;20041;-29
2021/12/28 06:14:49;;;;;;;58.67;27.17;;;;;;;;;;5069455;28;20116;-29
2021/12/28 06:17:15;;;;;;;51.15;24.50;;;;;;;;;;5070736;28;20148;-29
2021/12/28 06:19:41;;;;;;;43.65;22.50;;;;;;;;;;5071288;28;20037;-29
2021/12/28 06:22:07;;;;;;;49.88;22.73;;;;;;;;;;5069587;28;20047;-29
2021/12/28 06:24:33;;;;;;;46.55;23.25;;;;;;;;;;5070311;28;20044;-29
2021/12/28 06:26:59;;;;;;;45.58;24.77;;;;;;;;;;5070244;28;20069;-29
2021/12/28 06:29:25;;;;;;;38.72;21.70;;;;;;;;;;5070063;28;20052;-29
2021/12/28 06:31:51;;;;;;;40.17;22.58;;;;;;;;;;5070346;28;20093;-29
2021/12/28 06:34:17;;;;;;;38.25;21.52;;;;;;;;;;5070656;28;20037;-28
2021/12/28 06:36:43;;;;;;;53.35;23.90;;;;;;;;;;5069304;28;20032;-29
2021/12/28 06:39:10;;;;;;;47.67;23.95;;;;;;;;;;5063939;28;20490;-29
2021/12/28 06:41:38;;;;;;;44.63;23.95;;;;;;;;;;5059962;28;20032;-29
2021/12/28 06:44:04;;;;;;;41.30;22.38;;;;;;;;;;5069365;28;20055;-29
2021/12/28 06:46:30;;;;;;;34.88;19.95;;;;;;;;;;5069750;28;20055;-29
2021/12/28 06:48:56;;;;;;;39.90;22.73;;;;;;;;;;5068445;28;20036;-29
2021/12/28 06:51:22;;;;;;;41.10;20.90;;;;;;;;;;5061411;28;20062;-29
2021/12/28 06:53:49;;;;;;;35.70;20.58;;;;;;;;;;5071950;28;20040;-26
2021/12/28 06:56:28;;;;;;;34.92;19.13;;;;;;;;;;5072244;28;20075;-30
2021/12/28 06:58:54;;;;;;;34.60;19.23;;;;;;;;;;5053621;28;20333;-28
2021/12/28 07:01:22;;;;;;;35.28;19.48;;;;;;;;;;5052629;28;20045;-28
2021/12/28 07:03:48;;;;;;;34.47;19.05;;;;;;;;;;5069838;28;20158;-28
2021/12/28 07:06:16;;;;;;;32.08;18.50;;;;;;;;;;5069755;28;20491;-28
2021/12/28 07:08:42;;;;;;;40.08;21.10;;;;;;;;;;5069693;28;20098;-28
2021/12/28 07:11:08;;;;;;;34.63;19.48;;;;;;;;;;5068474;28;20549;-28
2021/12/28 07:13:34;;;;;;;34.10;18.30;;;;;;;;;;5068724;28;20504;-28
2021/12/28 07:16:00;;;;;;;34.58;18.88;;;;;;;;;;5069358;28;20044;-28
2021/12/28 07:18:27;;;;;;;39.20;20.30;;;;;;;;;;5068894;28;20433;-28
2021/12/28 07:20:53;;;;;;;33.75;18.95;;;;;;;;;;5069726;28;20040;-28
2021/12/28 07:23:19;;;;;;;31.35;19.27;;;;;;;;;;5068250;28;20415;-27
2021/12/28 07:25:46;;;;;;;37.70;19.58;;;;;;;;;;5069452;28;20194;-37
2021/12/28 07:28:12;;;;;;;33.65;18.40;;;;;;;;;;5052251;28;20044;-28
2021/12/28 07:30:38;;;;;;;35.70;19.50;;;;;;;;;;5053003;28;20045;-28
2021/12/28 07:33:04;;;;;;;38.67;19.73;;;;;;;;;;5053428;28;20040;-28
2021/12/28 07:35:30;;;;;;;33.92;18.15;;;;;;;;;;5047964;28;20037;-28
2021/12/28 07:37:56;;;;;;;34.50;18.58;;;;;;;;;;5051841;28;20257;-28
2021/12/28 07:40:22;;;;;;;31.63;18.05;;;;;;;;;;5053234;23;20037;-26
2021/12/28 07:42:48;;;;;;;28.08;16.25;;;;;;;;;;5068369;22;20041;-26
2021/12/28 07:45:15;;;;;;;27.25;16.88;;;;;;;;;;5055541;28;20087;-25
2021/12/28 07:47:42;;;;;;;34.42;18.10;;;;;;;;;;5054376;28;20044;-27
2021/12/28 07:50:09;;;;;;;34.80;19.25;;;;;;;;;;5061459;28;20043;-28
2021/12/28 07:52:35;;;;;;;30.30;17.23;;;;;;;;;;5065957;28;20037;-28
2021/12/28 07:55:02;;;;;;;31.42;18.60;;;;;;;;;;5060617;28;20431;-30
2021/12/28 07:57:28;;;;;;;31.92;18.40;;;;;;;;;;5055988;28;20378;-30
2021/12/28 07:59:54;;;;;;;30.42;16.85;;;;;;;;;;5051683;28;20045;-30
2021/12/28 08:02:20;;;;;;;27.98;16.95;;;;;;;;;;5051021;28;20045;-30
2021/12/28 08:04:46;;;;;;;31.98;17.67;;;;;;;;;;5052600;28;20500;-30
2021/12/28 08:07:12;;;;;;;27.88;16.65;;;;;;;;;;5036346;28;20211;-30
2021/12/28 08:09:38;;;;;;;30.83;17.17;;;;;;;;;;5061876;28;20220;-30
2021/12/28 08:12:04;;;;;;;29.90;17.05;;;;;;;;;;5060921;28;20040;-30
2021/12/28 08:14:30;;;;;;;29.10;16.63;;;;;;;;;;5049432;28;20037;-29
2021/12/28 08:16:56;;;;;;;30.48;17.02;;;;;;;;;;5062060;28;20498;-29
2021/12/28 08:19:22;;;;;;;26.85;16.75;;;;;;;;;;5061601;28;20043;-31
2021/12/28 08:21:48;;;;;;;25.33;16.02;;;;;;;;;;5054284;28;20048;-30
2021/12/28 08:24:14;;;;;;;28.40;15.20;;;;;;;;;;5056403;28;20506;-29
2021/12/28 08:26:40;;;;;;;24.45;16.25;;;;;;;;;;5062647;28;20044;-30
2021/12/28 08:29:06;;;;;;;28.65;16.67;;;;;;;;;;5062521;28;20055;-30
2021/12/28 08:31:33;;;;;;;27.80;15.90;;;;;;;;;;5063335;28;20037;-30
2021/12/28 08:33:59;;;;;;;26.65;14.25;;;;;;;;;;5066088;28;20032;-30
2021/12/28 08:36:25;;;;;;;28.52;15.13;;;;;;;;;;5058889;28;20441;-31
2021/12/28 08:38:51;;;;;;;24.30;13.25;;;;;;;;;;5062574;28;20037;-32
2021/12/28 08:41:17;;;;;;;27.20;14.65;;;;;;;;;;5065753;28;20109;-31
2021/12/28 08:43:45;;;;;;;31.90;15.23;;;;;;;;;;5063237;28;20047;-32
2021/12/28 08:46:11;;;;;;;26.42;14.40;;;;;;;;;;5063880;28;20123;-31
2021/12/28 08:48:37;;;;;;;24.15;14.90;;;;;;;;;;5062061;28;20052;-31
2021/12/28 08:51:03;;;;;;;32.03;14.65;;;;;;;;;;5069218;28;20052;-31
2021/12/28 08:53:29;;;;;;;28.52;14.20;;;;;;;;;;5068507;28;20382;-30
2021/12/28 08:55:55;;;;;;;24.55;14.05;;;;;;;;;;5069362;28;20088;-29
2021/12/28 08:58:21;;;;;;;27.67;14.57;;;;;;;;;;5066405;28;20040;-30
2021/12/28 09:00:47;;;;;;;28.85;14.93;;;;;;;;;;5059882;28;20056;-29
2021/12/28 09:03:16;;;;;;;23.30;12.85;;;;;;;;;;5052847;28;20037;-30
2021/12/28 09:05:42;;;;;;;25.13;12.93;;;;;;;;;;5068078;28;20513;-29
2021/12/28 09:08:13;;;;;;;25.58;13.02;;;;;;;;;;5049369;28;20075;-30
2021/12/28 09:10:39;;;;;;;26.98;12.77;;;;;;;;;;5070158;28;20160;-30
2021/12/28 09:13:07;;;;;;;23.15;12.68;;;;;;;;;;5072326;28;20033;-29
2021/12/28 09:15:33;;;;;;;21.48;11.77;;;;;;;;;;5067858;28;20044;-29
2021/12/28 09:17:59;;;;;;;25.63;12.40;;;;;;;;;;5062749;28;20052;-29
2021/12/28 09:20:26;;;;;;;22.23;12.02;;;;;;;;;;5065602;28;20481;-30
2021/12/28 09:22:53;;;;;;;21.73;11.32;;;;;;;;;;5069343;28;20094;-28
2021/12/28 09:25:20;;;;;;;27.95;11.93;;;;;;;;;;5070947;28;20041;-27
2021/12/28 09:27:47;;;;;;;24.10;12.07;;;;;;;;;;5052662;28;20086;-28
2021/12/28 09:30:13;;;;;;;24.15;11.13;;;;;;;;;;5067754;28;20510;-26
2021/12/28 09:32:40;;;;;;;17.95;10.30;;;;;;;;;;5072997;28;20415;-26
2021/12/28 09:35:06;;;;;;;21.25;10.85;;;;;;;;;;5072575;28;20043;-26
2021/12/28 09:37:35;;;;;;;21.30;10.30;;;;;;;;;;5072494;28;20068;-26
2021/12/28 09:40:02;;;;;;;17.17;10.52;;;;;;;;;;5072933;28;20047;-26
2021/12/28 09:42:28;;;;;;;23.30;11.30;;;;;;;;;;5072531;28;20048;-26
2021/12/28 09:44:55;;;;;;;20.05;10.23;;;;;;;;;;5072691;28;20174;-26
2021/12/28 09:47:21;;;;;;;21.77;10.70;;;;;;;;;;5072878;28;20401;-26
2021/12/28 09:50:11;;;;;;;21.73;10.13;;;;;;;;;;5073134;28;20047;-26
2021/12/28 09:52:34;;;;;;;23.10;10.73;;;;;;;;;;5071671;28;20054;-26
2021/12/28 09:55:00;;;;;;;19.83;9.55;;;;;;;;;;5073005;28;20040;-26
2021/12/28 09:57:45;;;;;;;19.90;9.80;;;;;;;;;;5071926;28;20080;-26
2021/12/28 10:00:15;;;;;;;20.50;9.10;;;;;;;;;;5054367;28;20481;-26
2021/12/28 10:02:41;;;;;;;18.52;10.73;;;;;;;;;;5072344;28;20510;-26
2021/12/28 10:05:10;;;;;;;21.00;9.50;;;;;;;;;;5071670;28;20072;-26
2021/12/28 10:07:49;;;;;;;21.77;9.88;;;;;;;;;;5071881;28;20491;-26
2021/12/28 10:10:29;;;;;;;19.02;10.02;;;;;;;;;;5071212;28;20044;-27
2021/12/28 10:13:06;;;;;;;22.15;9.30;;;;;;;;;;5071485;28;20447;-26
2021/12/28 10:15:36;;;;;;;18.08;9.57;;;;;;;;;;5071313;28;20037;-27
2021/12/28 10:18:04;;;;;;;16.40;8.50;;;;;;;;;;5071696;28;20036;-28
2021/12/28 10:20:31;;;;;;;23.27;10.50;;;;;;;;;;5055358;28;20070;-27
2021/12/28 10:22:59;;;;;;;18.00;9.63;;;;;;;;;;5072464;28;20489;-28
2021/12/28 10:25:29;;;;;;;26.42;10.32;;;;;;;;;;5071926;28;20048;-27
2021/12/28 10:28:04;;;;;;;19.77;9.90;;;;;;;;;;5071804;28;20040;-27
2021/12/28 10:30:58;;;;;;;17.70;9.80;;;;;;;;;;5071194;28;20044;-26
2021/12/28 10:33:26;;;;;;;19.55;9.48;;;;;;;;;;5028226;28;20341;-27
2021/12/28 10:35:54;;;;;;;22.73;11.40;;;;;;;;;;5033134;28;20068;-27
2021/12/28 10:38:22;;;;;;;24.30;10.75;;;;;;;;;;5069331;28;20040;-27
2021/12/28 10:40:54;;;;;;;18.52;9.70;;;;;;;;;;5069899;28;20097;-27
2021/12/28 10:43:21;;;;;;;20.27;10.15;;;;;;;;;;5068678;28;20043;-27
2021/12/28 10:45:50;;;;;;;23.65;11.45;;;;;;;;;;5068529;28;20517;-27
2021/12/28 10:48:16;;;;;;;21.58;10.63;;;;;;;;;;5068057;28;20051;-27
2021/12/28 10:50:59;;;;;;;22.35;9.82;;;;;;;;;;5049817;28;20032;-27
2021/12/28 10:53:33;;;;;;;21.97;9.47;;;;;;;;;;5067909;28;20115;-26
2021/12/28 10:56:00;;;;;;;21.38;10.23;;;;;;;;;;5071375;28;20079;-27
2021/12/28 10:58:31;;;;;;;22.50;10.77;;;;;;;;;;5073385;28;20043;-27
2021/12/28 11:01:21;;;;;;;20.77;9.93;;;;;;;;;;5073196;28;20451;-27
2021/12/28 11:03:48;;;;;;;26.20;10.13;;;;;;;;;;5026650;28;20048;-28
2021/12/28 11:06:17;;;;;;;26.65;11.45;;;;;;;;;;5073245;28;20040;-27
2021/12/28 11:08:45;;;;;;;24.67;12.55;;;;;;;;;;5072767;28;20047;-27
2021/12/28 11:11:12;;;;;;;22.27;12.10;;;;;;;;;;5072765;28;20485;-27
2021/12/28 11:13:39;;;;;;;31.58;13.32;;;;;;;;;;5072878;28;20032;-27
2021/12/28 11:16:06;;;;;;;25.75;14.00;;;;;;;;;;5073200;28;20045;-27
2021/12/28 11:18:34;;;;;;;25.77;13.45;;;;;;;;;;5072378;28;20507;-29
2021/12/28 11:21:02;;;;;;;27.95;13.25;;;;;;;;;;5069400;28;21084;-29
2021/12/28 11:23:29;;;;;;;26.70;12.90;;;;;;;;;;5070885;28;20533;-29
2021/12/28 11:26:11;;;;;;;26.70;13.00;;;;;;;;;;5070991;28;20044;-27
2021/12/28 11:28:57;;;;;;;27.30;14.07;;;;;;;;;;5051878;28;20044;-27
2021/12/28 11:31:25;;;;;;;25.42;12.27;;;;;;;;;;5036276;28;20062;-27
2021/12/28 11:34:17;;;;;;;29.40;12.88;;;;;;;;;;5070731;28;20408;-27
2021/12/28 11:36:45;;;;;;;26.77;13.55;;;;;;;;;;5064575;28;20447;-27
2021/12/28 11:39:22;;;;;;;26.10;13.13;;;;;;;;;;5056021;28;20064;-27
2021/12/28 11:41:49;;;;;;;23.63;13.98;;;;;;;;;;5057423;28;20091;-29
2021/12/28 11:44:16;;;;;;;24.80;14.90;;;;;;;;;;5064174;28;20033;-31
2021/12/28 11:46:42;;;;;;;28.35;16.45;;;;;;;;;;5058075;28;20042;-31
2021/12/28 11:49:17;;;;;;;29.63;16.90;;;;;;;;;;5063829;28;20515;-31
2021/12/28 11:51:47;;;;;;;26.90;16.08;;;;;;;;;;5042139;28;20374;-31
2021/12/28 11:54:21;;;;;;;28.20;15.05;;;;;;;;;;5055392;28;20040;-32
2021/12/28 11:56:49;;;;;;;28.55;16.55;;;;;;;;;;5058625;28;20071;-30
2021/12/28 11:59:20;;;;;;;34.13;16.77;;;;;;;;;;5061921;28;20070;-32
2021/12/28 12:01:48;;;;;;;25.75;16.67;;;;;;;;;;5060405;28;20036;-30
2021/12/28 12:04:26;;;;;;;25.33;17.10;;;;;;;;;;5053552;28;20032;-30
2021/12/28 12:07:12;;;;;;;28.50;15.48;;;;;;;;;;5069399;28;20400;-30
2021/12/28 12:09:56;;;;;;;25.65;15.23;;;;;;;;;;5060525;28;20091;-30
2021/12/28 12:12:26;;;;;;;24.52;15.18;;;;;;;;;;5069010;28;20137;-31
2021/12/28 12:14:57;;;;;;;25.13;16.70;;;;;;;;;;5068622;28;20033;-31
2021/12/28 12:17:29;;;;;;;28.60;16.30;;;;;;;;;;5067686;28;20554;-30
2021/12/28 12:20:00;;;;;;;29.77;16.15;;;;;;;;;;5059145;28;20048;-31
2021/12/28 12:22:30;;;;;;;23.67;15.65;;;;;;;;;;5062016;28;20404;-30
2021/12/28 12:24:57;;;;;;;28.02;16.63;;;;;;;;;;5056282;28;20124;-31
2021/12/28 12:27:41;;;;;;;26.95;16.80;;;;;;;;;;5060516;28;20032;-29
2021/12/28 12:30:28;;;;;;;27.15;16.35;;;;;;;;;;5054504;28;20094;-29
2021/12/28 12:32:57;;;;;;;30.60;18.35;;;;;;;;;;5061155;28;20089;-31
2021/12/28 12:37:51;;;;;;;30.88;18.88;;;;;;;;;;5070587;28;20037;-29
2021/12/28 12:40:17;;;;;;;29.00;19.00;;;;;;;;;;5059596;28;20045;-30
2021/12/28 12:43:05;;;;;;;27.92;19.10;;;;;;;;;;5059785;28;20040;-29
2021/12/28 12:45:49;;;;;;;24.35;16.27;;;;;;;;;;5067218;28;20052;-29
2021/12/28 12:48:31;;;;;;;30.40;17.98;;;;;;;;;;5054993;28;20375;-29
2021/12/28 12:51:21;;;;;;;23.02;16.48;;;;;;;;;;5050090;28;20036;-29
2021/12/28 12:53:47;;;;;;;27.58;17.67;;;;;;;;;;5043836;28;20647;-29
2021/12/28 12:56:13;;;;;;;26.85;17.80;;;;;;;;;;5055150;28;20079;-29
2021/12/28 12:58:46;;;;;;;28.65;19.65;;;;;;;;;;5055952;28;20036;-29
2021/12/28 13:01:38;;;;;;;28.70;19.40;;;;;;;;;;5055627;28;20051;-29
2021/12/28 13:04:24;;;;;;;33.75;18.85;;;;;;;;;;5038099;28;20041;-29
2021/12/28 13:07:02;;;;;;;29.10;19.33;;;;;;;;;;5043251;28;20516;-28
2021/12/28 13:09:29;;;;;;;31.33;19.50;;;;;;;;;;5061638;28;20114;-29
2021/12/28 13:11:57;;;;;;;31.20;19.23;;;;;;;;;;5062043;28;20032;-29
2021/12/28 13:14:23;;;;;;;36.58;22.10;;;;;;;;;;5041695;28;20048;-29
2021/12/28 13:16:59;;;;;;;34.08;21.60;;;;;;;;;;5059078;28;20093;-29
2021/12/28 13:19:25;;;;;;;27.27;18.90;;;;;;;;;;5063718;28;20482;-29
2021/12/28 13:21:57;;;;;;;35.58;22.42;;;;;;;;;;5059993;28;20029;-29
2021/12/28 13:24:24;;;;;;;38.53;22.50;;;;;;;;;;5060684;28;20097;-29
2021/12/28 13:26:52;;;;;;;27.92;20.35;;;;;;;;;;5061081;28;20072;-29
2021/12/28 13:29:25;;;;;;;30.35;22.08;;;;;;;;;;5064473;28;20071;-29
2021/12/28 13:31:51;;;;;;;34.10;24.67;;;;;;;;;;5066080;28;20037;-29
2021/12/28 13:34:17;;;;;;;40.75;24.67;;;;;;;;;;5056693;28;20037;-29
2021/12/28 13:36:50;;;;;;;27.40;19.70;;;;;;;;;;5053762;28;20521;-29
2021/12/28 13:39:16;;;;;;;37.00;22.55;;;;;;;;;;5063431;28;20131;-30
2021/12/28 13:41:49;;;;;;;30.88;21.17;;;;;;;;;;5074033;28;20044;-32
2021/12/28 13:44:15;;;;;;;29.73;18.83;;;;;;;;;;5073551;28;20049;-26
2021/12/28 13:46:41;;;;;;;36.35;21.88;;;;;;;;;;5073194;28;20128;-27
2021/12/28 13:49:07;;;;;;;35.38;21.58;;;;;;;;;;5054981;28;20048;-32
2021/12/28 13:51:33;;;;;;;35.33;24.15;;;;;;;;;;5074367;28;20032;-28
2021/12/28 13:54:00;;;;;;;28.13;19.85;;;;;;;;;;5072530;28;20047;-28
2021/12/28 13:56:36;;;;;;;30.42;20.17;;;;;;;;;;5053935;28;20052;-27
2021/12/28 13:59:12;;;;;;;33.92;21.85;;;;;;;;;;5070244;28;20040;-27
2021/12/28 14:01:39;;;;;;;28.50;19.40;;;;;;;;;;5072912;28;20072;-28
2021/12/28 14:04:13;;;;;;;25.88;19.67;;;;;;;;;;5071232;28;20036;-27
2021/12/28 14:06:41;;;;;;;49.50;29.25;;;;;;;;;;5072989;28;20045;-28
2021/12/28 14:09:08;;;;;;;39.58;25.95;;;;;;;;;;5072446;28;20165;-28
2021/12/28 14:11:35;;;;;;;36.55;24.35;;;;;;;;;;5072804;28;20036;-29
2021/12/28 14:14:02;;;;;;;36.72;24.65;;;;;;;;;;5072241;28;20067;-28
2021/12/28 14:16:28;;;;;;;30.90;21.75;;;;;;;;;;5072721;28;20032;-28
2021/12/28 14:18:55;;;;;;;25.85;17.48;;;;;;;;;;5072840;28;20447;-28
2021/12/28 14:21:28;;;;;;;21.70;14.13;;;;;;;;;;5070139;28;20040;-27
2021/12/28 14:24:02;;;;;;;22.98;14.82;;;;;;;;;;5071182;28;20513;-27
2021/12/28 14:26:28;;;;;;;;;;;;;;;;;;5071093;28;20075;-26
2021/12/28 14:28:56;;;;;;;14.30;8.52;;;;;;;;;;5071512;28;19947;-26
2021/12/28 14:31:24;;;;;;;9.05;7.35;;;;;;;;;;5072358;28;20028;-27